sensor_id;sensor_type;location;lat;lon;timestamp;P1;durP1;ratioP1;P2;durP2;ratioP2
52708;SDS011;38606;52.986;6.980;2022-08-03T00:00:03;9.90;;;2.40;;
52708;SDS011;38606;52.986;6.980;2022-08-03T00:02:30;6.10;;;2.50;;
52708;SDS011;38606;52.986;6.980;2022-08-03T00:04:56;6.82;;;2.10;;
52708;SDS011;38606;52.986;6.980;2022-08-03T00:07:21;11.50;;;2.55;;
52708;SDS011;38606;52.986;6.980;2022-08-03T00:09:47;9.05;;;2.55;;
52708;SDS011;38606;52.986;6.980;2022-08-03T00:12:13;5.53;;;2.20;;
52708;SDS011;38606;52.986;6.980;2022-08-03T00:14:38;10.13;;;2.20;;
52708;SDS011;38606;52.986;6.980;2022-08-03T00:17:04;6.35;;;2.30;;
52708;SDS011;38606;52.986;6.980;2022-08-03T00:19:30;7.18;;;2.47;;
52708;SDS011;38606;52.986;6.980;2022-08-03T00:21:55;13.70;;;3.20;;
52708;SDS011;38606;52.986;6.980;2022-08-03T00:24:21;11.68;;;2.10;;
52708;SDS011;38606;52.986;6.980;2022-08-03T00:26:47;7.05;;;2.35;;
52708;SDS011;38606;52.986;6.980;2022-08-03T00:29:12;8.85;;;2.63;;
52708;SDS011;38606;52.986;6.980;2022-08-03T00:31:38;9.05;;;3.13;;
52708;SDS011;38606;52.986;6.980;2022-08-03T00:34:04;8.18;;;2.33;;
52708;SDS011;38606;52.986;6.980;2022-08-03T00:36:30;9.35;;;2.42;;
52708;SDS011;38606;52.986;6.980;2022-08-03T00:38:56;8.90;;;2.50;;
52708;SDS011;38606;52.986;6.980;2022-08-03T00:41:22;7.25;;;2.10;;
52708;SDS011;38606;52.986;6.980;2022-08-03T00:43:48;7.22;;;1.90;;
52708;SDS011;38606;52.986;6.980;2022-08-03T00:46:14;7.07;;;2.30;;
52708;SDS011;38606;52.986;6.980;2022-08-03T00:48:39;11.05;;;2.80;;
52708;SDS011;38606;52.986;6.980;2022-08-03T00:51:05;8.73;;;2.47;;
52708;SDS011;38606;52.986;6.980;2022-08-03T00:53:31;7.50;;;1.75;;
52708;SDS011;38606;52.986;6.980;2022-08-03T00:55:58;8.90;;;2.05;;
52708;SDS011;38606;52.986;6.980;2022-08-03T00:58:24;3.35;;;1.90;;
52708;SDS011;38606;52.986;6.980;2022-08-03T01:00:50;9.68;;;2.25;;
52708;SDS011;38606;52.986;6.980;2022-08-03T01:03:16;7.20;;;2.45;;
52708;SDS011;38606;52.986;6.980;2022-08-03T01:06:06;7.20;;;2.45;;
52708;SDS011;38606;52.986;6.980;2022-08-03T01:11:48;11.48;;;2.75;;
52708;SDS011;38606;52.986;6.980;2022-08-03T01:14:26;10.70;;;2.58;;
52708;SDS011;38606;52.986;6.980;2022-08-03T01:19:45;10.15;;;3.00;;
52708;SDS011;38606;52.986;6.980;2022-08-03T01:30:40;5.93;;;2.95;;
52708;SDS011;38606;52.986;6.980;2022-08-03T01:33:11;7.85;;;3.47;;
52708;SDS011;38606;52.986;6.980;2022-08-03T01:35:45;9.27;;;3.38;;
52708;SDS011;38606;52.986;6.980;2022-08-03T01:38:17;9.40;;;3.20;;
52708;SDS011;38606;52.986;6.980;2022-08-03T01:40:49;7.60;;;3.17;;
52708;SDS011;38606;52.986;6.980;2022-08-03T01:43:18;6.22;;;3.03;;
52708;SDS011;38606;52.986;6.980;2022-08-03T01:45:48;6.10;;;3.40;;
52708;SDS011;38606;52.986;6.980;2022-08-03T01:48:15;7.55;;;3.50;;
52708;SDS011;38606;52.986;6.980;2022-08-03T01:50:44;10.52;;;3.45;;
52708;SDS011;38606;52.986;6.980;2022-08-03T01:53:12;8.57;;;3.60;;
52708;SDS011;38606;52.986;6.980;2022-08-03T01:55:40;7.72;;;3.15;;
52708;SDS011;38606;52.986;6.980;2022-08-03T01:58:09;9.38;;;3.70;;
52708;SDS011;38606;52.986;6.980;2022-08-03T02:00:39;10.95;;;3.80;;
52708;SDS011;38606;52.986;6.980;2022-08-03T02:03:05;7.80;;;3.45;;
52708;SDS011;38606;52.986;6.980;2022-08-03T02:05:32;7.90;;;3.17;;
52708;SDS011;38606;52.986;6.980;2022-08-03T02:07:59;10.30;;;3.28;;
52708;SDS011;38606;52.986;6.980;2022-08-03T02:10:27;10.73;;;4.03;;
52708;SDS011;38606;52.986;6.980;2022-08-03T02:12:54;12.40;;;3.13;;
52708;SDS011;38606;52.986;6.980;2022-08-03T02:15:23;10.27;;;3.00;;
52708;SDS011;38606;52.986;6.980;2022-08-03T02:17:50;7.38;;;3.00;;
52708;SDS011;38606;52.986;6.980;2022-08-03T02:20:17;12.93;;;3.10;;
52708;SDS011;38606;52.986;6.980;2022-08-03T02:22:44;7.97;;;2.95;;
52708;SDS011;38606;52.986;6.980;2022-08-03T02:25:11;10.43;;;3.42;;
52708;SDS011;38606;52.986;6.980;2022-08-03T02:27:40;9.20;;;2.92;;
52708;SDS011;38606;52.986;6.980;2022-08-03T02:30:12;8.80;;;3.10;;
52708;SDS011;38606;52.986;6.980;2022-08-03T02:32:39;9.35;;;2.97;;
52708;SDS011;38606;52.986;6.980;2022-08-03T02:35:09;8.35;;;3.30;;
52708;SDS011;38606;52.986;6.980;2022-08-03T02:37:40;9.75;;;2.92;;
52708;SDS011;38606;52.986;6.980;2022-08-03T02:40:09;7.75;;;2.88;;
52708;SDS011;38606;52.986;6.980;2022-08-03T02:42:36;6.70;;;3.40;;
52708;SDS011;38606;52.986;6.980;2022-08-03T02:45:04;9.85;;;3.35;;
52708;SDS011;38606;52.986;6.980;2022-08-03T02:47:35;9.57;;;3.53;;
52708;SDS011;38606;52.986;6.980;2022-08-03T02:50:04;9.93;;;3.40;;
52708;SDS011;38606;52.986;6.980;2022-08-03T02:52:30;10.52;;;3.28;;
52708;SDS011;38606;52.986;6.980;2022-08-03T02:54:59;7.90;;;3.15;;
52708;SDS011;38606;52.986;6.980;2022-08-03T02:57:27;9.18;;;3.80;;
52708;SDS011;38606;52.986;6.980;2022-08-03T02:59:55;8.35;;;3.45;;
52708;SDS011;38606;52.986;6.980;2022-08-03T03:02:23;10.95;;;3.65;;
52708;SDS011;38606;52.986;6.980;2022-08-03T03:04:49;8.57;;;3.65;;
52708;SDS011;38606;52.986;6.980;2022-08-03T03:07:16;12.45;;;4.22;;
52708;SDS011;38606;52.986;6.980;2022-08-03T03:09:42;8.63;;;4.13;;
52708;SDS011;38606;52.986;6.980;2022-08-03T03:12:09;10.50;;;3.97;;
52708;SDS011;38606;52.986;6.980;2022-08-03T03:14:38;8.82;;;3.83;;
52708;SDS011;38606;52.986;6.980;2022-08-03T03:17:08;7.55;;;4.20;;
52708;SDS011;38606;52.986;6.980;2022-08-03T03:19:35;10.80;;;3.65;;
52708;SDS011;38606;52.986;6.980;2022-08-03T03:22:03;7.28;;;3.72;;
52708;SDS011;38606;52.986;6.980;2022-08-03T03:24:31;8.32;;;3.58;;
52708;SDS011;38606;52.986;6.980;2022-08-03T03:26:59;9.80;;;3.95;;
52708;SDS011;38606;52.986;6.980;2022-08-03T03:29:26;13.80;;;4.05;;
52708;SDS011;38606;52.986;6.980;2022-08-03T03:31:52;13.98;;;4.80;;
52708;SDS011;38606;52.986;6.980;2022-08-03T03:34:18;5.68;;;3.15;;
52708;SDS011;38606;52.986;6.980;2022-08-03T03:36:44;8.60;;;4.00;;
52708;SDS011;38606;52.986;6.980;2022-08-03T03:39:10;7.28;;;3.65;;
52708;SDS011;38606;52.986;6.980;2022-08-03T03:41:36;12.13;;;4.65;;
52708;SDS011;38606;52.986;6.980;2022-08-03T03:44:03;13.25;;;4.38;;
52708;SDS011;38606;52.986;6.980;2022-08-03T03:46:29;10.85;;;3.50;;
52708;SDS011;38606;52.986;6.980;2022-08-03T03:48:55;12.30;;;4.35;;
52708;SDS011;38606;52.986;6.980;2022-08-03T03:51:22;6.95;;;4.10;;
52708;SDS011;38606;52.986;6.980;2022-08-03T03:53:57;8.02;;;3.78;;
52708;SDS011;38606;52.986;6.980;2022-08-03T03:56:24;11.77;;;3.97;;
52708;SDS011;38606;52.986;6.980;2022-08-03T03:58:49;7.57;;;3.50;;
52708;SDS011;38606;52.986;6.980;2022-08-03T04:01:15;8.68;;;3.70;;
52708;SDS011;38606;52.986;6.980;2022-08-03T04:03:42;10.27;;;3.72;;
52708;SDS011;38606;52.986;6.980;2022-08-03T04:06:07;7.20;;;3.83;;
52708;SDS011;38606;52.986;6.980;2022-08-03T04:08:52;12.70;;;4.50;;
52708;SDS011;38606;52.986;6.980;2022-08-03T04:14:24;8.27;;;3.83;;
52708;SDS011;38606;52.986;6.980;2022-08-03T04:16:54;9.95;;;3.97;;
52708;SDS011;38606;52.986;6.980;2022-08-03T04:19:42;8.25;;;3.58;;
52708;SDS011;38606;52.986;6.980;2022-08-03T04:22:12;10.48;;;3.30;;
52708;SDS011;38606;52.986;6.980;2022-08-03T04:24:43;8.13;;;3.28;;
52708;SDS011;38606;52.986;6.980;2022-08-03T04:27:14;11.32;;;3.15;;
52708;SDS011;38606;52.986;6.980;2022-08-03T04:29:45;9.43;;;3.33;;
52708;SDS011;38606;52.986;6.980;2022-08-03T04:32:13;11.98;;;3.08;;
52708;SDS011;38606;52.986;6.980;2022-08-03T04:34:40;8.43;;;3.35;;
52708;SDS011;38606;52.986;6.980;2022-08-03T04:37:10;10.95;;;3.00;;
52708;SDS011;38606;52.986;6.980;2022-08-03T04:39:38;9.18;;;2.92;;
52708;SDS011;38606;52.986;6.980;2022-08-03T04:42:06;7.95;;;2.85;;
52708;SDS011;38606;52.986;6.980;2022-08-03T04:44:36;11.23;;;3.00;;
52708;SDS011;38606;52.986;6.980;2022-08-03T04:47:05;10.15;;;3.22;;
52708;SDS011;38606;52.986;6.980;2022-08-03T04:49:32;11.52;;;3.15;;
52708;SDS011;38606;52.986;6.980;2022-08-03T04:52:01;10.63;;;2.83;;
52708;SDS011;38606;52.986;6.980;2022-08-03T04:54:27;13.40;;;2.90;;
52708;SDS011;38606;52.986;6.980;2022-08-03T04:56:53;10.00;;;2.80;;
52708;SDS011;38606;52.986;6.980;2022-08-03T04:59:19;11.32;;;3.30;;
52708;SDS011;38606;52.986;6.980;2022-08-03T05:01:44;6.85;;;2.35;;
52708;SDS011;38606;52.986;6.980;2022-08-03T05:04:10;9.63;;;2.55;;
52708;SDS011;38606;52.986;6.980;2022-08-03T05:06:36;7.40;;;3.20;;
52708;SDS011;38606;52.986;6.980;2022-08-03T05:09:02;7.60;;;2.30;;
52708;SDS011;38606;52.986;6.980;2022-08-03T05:11:28;11.80;;;2.78;;
52708;SDS011;38606;52.986;6.980;2022-08-03T05:13:54;8.85;;;2.60;;
52708;SDS011;38606;52.986;6.980;2022-08-03T05:16:19;11.10;;;3.58;;
52708;SDS011;38606;52.986;6.980;2022-08-03T05:18:45;7.45;;;2.35;;
52708;SDS011;38606;52.986;6.980;2022-08-03T05:21:11;10.15;;;2.88;;
52708;SDS011;38606;52.986;6.980;2022-08-03T05:23:41;9.38;;;2.60;;
52708;SDS011;38606;52.986;6.980;2022-08-03T05:26:07;12.45;;;2.50;;
52708;SDS011;38606;52.986;6.980;2022-08-03T05:28:33;8.70;;;2.90;;
52708;SDS011;38606;52.986;6.980;2022-08-03T05:30:59;10.82;;;2.72;;
52708;SDS011;38606;52.986;6.980;2022-08-03T05:33:24;7.68;;;2.85;;
52708;SDS011;38606;52.986;6.980;2022-08-03T05:35:50;7.85;;;2.60;;
52708;SDS011;38606;52.986;6.980;2022-08-03T05:38:16;8.32;;;2.58;;
52708;SDS011;38606;52.986;6.980;2022-08-03T05:40:41;10.40;;;2.90;;
52708;SDS011;38606;52.986;6.980;2022-08-03T05:43:07;6.50;;;2.83;;
52708;SDS011;38606;52.986;6.980;2022-08-03T05:45:33;13.20;;;3.13;;
52708;SDS011;38606;52.986;6.980;2022-08-03T05:47:58;10.02;;;2.67;;
52708;SDS011;38606;52.986;6.980;2022-08-03T05:50:24;12.25;;;2.97;;
52708;SDS011;38606;52.986;6.980;2022-08-03T05:52:50;9.10;;;2.60;;
52708;SDS011;38606;52.986;6.980;2022-08-03T05:55:19;8.73;;;2.88;;
52708;SDS011;38606;52.986;6.980;2022-08-03T05:57:45;12.23;;;2.95;;
52708;SDS011;38606;52.986;6.980;2022-08-03T06:00:11;10.77;;;3.47;;
52708;SDS011;38606;52.986;6.980;2022-08-03T06:02:37;7.40;;;3.10;;
52708;SDS011;38606;52.986;6.980;2022-08-03T06:05:03;8.20;;;2.78;;
52708;SDS011;38606;52.986;6.980;2022-08-03T06:07:30;8.85;;;3.00;;
52708;SDS011;38606;52.986;6.980;2022-08-03T06:09:56;11.75;;;2.88;;
52708;SDS011;38606;52.986;6.980;2022-08-03T06:12:21;7.78;;;2.80;;
52708;SDS011;38606;52.986;6.980;2022-08-03T06:14:47;16.23;;;3.65;;
52708;SDS011;38606;52.986;6.980;2022-08-03T06:17:13;13.30;;;2.60;;
52708;SDS011;38606;52.986;6.980;2022-08-03T06:19:38;10.95;;;2.50;;
52708;SDS011;38606;52.986;6.980;2022-08-03T06:22:04;10.55;;;2.95;;
52708;SDS011;38606;52.986;6.980;2022-08-03T06:24:30;14.15;;;2.95;;
52708;SDS011;38606;52.986;6.980;2022-08-03T06:26:57;9.40;;;2.78;;
52708;SDS011;38606;52.986;6.980;2022-08-03T06:29:22;9.00;;;2.80;;
52708;SDS011;38606;52.986;6.980;2022-08-03T06:31:48;13.35;;;2.33;;
52708;SDS011;38606;52.986;6.980;2022-08-03T06:34:14;13.00;;;2.85;;
52708;SDS011;38606;52.986;6.980;2022-08-03T06:36:40;10.30;;;2.97;;
52708;SDS011;38606;52.986;6.980;2022-08-03T06:39:05;17.05;;;4.97;;
52708;SDS011;38606;52.986;6.980;2022-08-03T06:41:31;13.32;;;3.00;;
52708;SDS011;38606;52.986;6.980;2022-08-03T06:43:57;16.27;;;3.58;;
52708;SDS011;38606;52.986;6.980;2022-08-03T06:46:23;15.10;;;3.35;;
52708;SDS011;38606;52.986;6.980;2022-08-03T06:48:48;11.32;;;2.75;;
52708;SDS011;38606;52.986;6.980;2022-08-03T06:51:14;14.43;;;2.92;;
52708;SDS011;38606;52.986;6.980;2022-08-03T06:53:40;11.40;;;3.28;;
52708;SDS011;38606;52.986;6.980;2022-08-03T06:56:06;15.95;;;2.90;;
52708;SDS011;38606;52.986;6.980;2022-08-03T06:58:32;11.40;;;2.60;;
52708;SDS011;38606;52.986;6.980;2022-08-03T07:00:58;14.13;;;3.22;;
52708;SDS011;38606;52.986;6.980;2022-08-03T07:03:24;9.50;;;3.03;;
52708;SDS011;38606;52.986;6.980;2022-08-03T07:05:50;13.95;;;3.30;;
52708;SDS011;38606;52.986;6.980;2022-08-03T07:08:16;16.75;;;3.55;;
52708;SDS011;38606;52.986;6.980;2022-08-03T07:10:43;11.65;;;2.95;;
52708;SDS011;38606;52.986;6.980;2022-08-03T07:13:09;13.30;;;2.83;;
52708;SDS011;38606;52.986;6.980;2022-08-03T07:15:35;10.30;;;3.22;;
52708;SDS011;38606;52.986;6.980;2022-08-03T07:18:01;9.48;;;2.55;;
52708;SDS011;38606;52.986;6.980;2022-08-03T07:20:26;9.68;;;2.60;;
52708;SDS011;38606;52.986;6.980;2022-08-03T07:22:52;14.73;;;3.20;;
52708;SDS011;38606;52.986;6.980;2022-08-03T07:25:18;9.98;;;2.85;;
52708;SDS011;38606;52.986;6.980;2022-08-03T07:27:44;14.13;;;2.90;;
52708;SDS011;38606;52.986;6.980;2022-08-03T07:30:11;16.92;;;3.40;;
52708;SDS011;38606;52.986;6.980;2022-08-03T07:32:38;14.75;;;2.88;;
52708;SDS011;38606;52.986;6.980;2022-08-03T07:35:04;13.05;;;2.75;;
52708;SDS011;38606;52.986;6.980;2022-08-03T07:37:31;11.05;;;2.97;;
52708;SDS011;38606;52.986;6.980;2022-08-03T07:40:01;9.43;;;2.40;;
52708;SDS011;38606;52.986;6.980;2022-08-03T07:42:28;10.40;;;2.85;;
52708;SDS011;38606;52.986;6.980;2022-08-03T07:44:55;9.32;;;2.28;;
52708;SDS011;38606;52.986;6.980;2022-08-03T07:47:25;8.98;;;3.25;;
52708;SDS011;38606;52.986;6.980;2022-08-03T07:49:52;15.57;;;3.53;;
52708;SDS011;38606;52.986;6.980;2022-08-03T07:52:19;12.27;;;3.20;;
52708;SDS011;38606;52.986;6.980;2022-08-03T07:55:06;14.13;;;4.18;;
52708;SDS011;38606;52.986;6.980;2022-08-03T07:57:33;18.15;;;3.10;;
52708;SDS011;38606;52.986;6.980;2022-08-03T07:59:59;15.38;;;3.17;;
52708;SDS011;38606;52.986;6.980;2022-08-03T08:02:25;11.45;;;2.80;;
52708;SDS011;38606;52.986;6.980;2022-08-03T08:04:51;11.45;;;2.85;;
52708;SDS011;38606;52.986;6.980;2022-08-03T08:07:16;11.43;;;2.97;;
52708;SDS011;38606;52.986;6.980;2022-08-03T08:09:42;14.57;;;2.33;;
52708;SDS011;38606;52.986;6.980;2022-08-03T08:12:08;10.80;;;2.53;;
52708;SDS011;38606;52.986;6.980;2022-08-03T08:14:36;15.02;;;2.75;;
52708;SDS011;38606;52.986;6.980;2022-08-03T08:17:02;13.40;;;2.72;;
52708;SDS011;38606;52.986;6.980;2022-08-03T08:19:28;12.77;;;2.40;;
52708;SDS011;38606;52.986;6.980;2022-08-03T08:21:54;15.68;;;3.05;;
52708;SDS011;38606;52.986;6.980;2022-08-03T08:24:19;11.75;;;2.35;;
52708;SDS011;38606;52.986;6.980;2022-08-03T08:26:45;16.20;;;3.90;;
52708;SDS011;38606;52.986;6.980;2022-08-03T08:29:11;11.65;;;2.53;;
52708;SDS011;38606;52.986;6.980;2022-08-03T08:31:36;13.32;;;2.47;;
52708;SDS011;38606;52.986;6.980;2022-08-03T08:34:02;15.98;;;2.85;;
52708;SDS011;38606;52.986;6.980;2022-08-03T08:36:30;16.95;;;3.28;;
52708;SDS011;38606;52.986;6.980;2022-08-03T08:39:00;14.60;;;2.70;;
52708;SDS011;38606;52.986;6.980;2022-08-03T08:41:26;10.40;;;3.10;;
52708;SDS011;38606;52.986;6.980;2022-08-03T08:43:52;11.40;;;3.22;;
52708;SDS011;38606;52.986;6.980;2022-08-03T08:46:19;12.98;;;3.00;;
52708;SDS011;38606;52.986;6.980;2022-08-03T08:48:45;14.45;;;2.58;;
52708;SDS011;38606;52.986;6.980;2022-08-03T08:51:13;12.13;;;2.58;;
52708;SDS011;38606;52.986;6.980;2022-08-03T08:53:42;13.55;;;2.80;;
52708;SDS011;38606;52.986;6.980;2022-08-03T08:56:12;11.15;;;2.50;;
52708;SDS011;38606;52.986;6.980;2022-08-03T08:58:46;18.00;;;2.92;;
52708;SDS011;38606;52.986;6.980;2022-08-03T09:01:19;12.88;;;2.40;;
52708;SDS011;38606;52.986;6.980;2022-08-03T09:03:46;14.35;;;2.67;;
52708;SDS011;38606;52.986;6.980;2022-08-03T09:06:12;14.50;;;3.17;;
52708;SDS011;38606;52.986;6.980;2022-08-03T09:08:37;15.68;;;2.78;;
52708;SDS011;38606;52.986;6.980;2022-08-03T09:11:03;11.82;;;2.55;;
52708;SDS011;38606;52.986;6.980;2022-08-03T09:13:29;11.20;;;2.63;;
52708;SDS011;38606;52.986;6.980;2022-08-03T09:16:08;12.35;;;3.10;;
52708;SDS011;38606;52.986;6.980;2022-08-03T09:18:38;12.13;;;2.65;;
52708;SDS011;38606;52.986;6.980;2022-08-03T09:21:15;14.48;;;3.70;;
52708;SDS011;38606;52.986;6.980;2022-08-03T09:23:50;14.32;;;2.60;;
52708;SDS011;38606;52.986;6.980;2022-08-03T09:26:20;11.60;;;2.63;;
52708;SDS011;38606;52.986;6.980;2022-08-03T09:29:04;11.38;;;2.50;;
52708;SDS011;38606;52.986;6.980;2022-08-03T09:34:10;10.52;;;2.47;;
52708;SDS011;38606;52.986;6.980;2022-08-03T09:36:44;12.13;;;2.70;;
52708;SDS011;38606;52.986;6.980;2022-08-03T09:39:21;13.60;;;2.97;;
52708;SDS011;38606;52.986;6.980;2022-08-03T09:42:24;12.00;;;2.53;;
52708;SDS011;38606;52.986;6.980;2022-08-03T09:44:47;11.57;;;2.60;;
52708;SDS011;38606;52.986;6.980;2022-08-03T09:47:15;14.85;;;3.00;;
52708;SDS011;38606;52.986;6.980;2022-08-03T09:50:00;12.27;;;2.80;;
52708;SDS011;38606;52.986;6.980;2022-08-03T09:52:28;8.82;;;2.08;;
52708;SDS011;38606;52.986;6.980;2022-08-03T09:54:56;8.43;;;2.42;;
52708;SDS011;38606;52.986;6.980;2022-08-03T09:57:23;8.45;;;2.40;;
52708;SDS011;38606;52.986;6.980;2022-08-03T09:59:51;9.77;;;2.25;;
52708;SDS011;38606;52.986;6.980;2022-08-03T10:02:22;10.88;;;2.15;;
52708;SDS011;38606;52.986;6.980;2022-08-03T10:04:49;8.15;;;2.20;;
52708;SDS011;38606;52.986;6.980;2022-08-03T10:07:17;10.40;;;2.08;;
52708;SDS011;38606;52.986;6.980;2022-08-03T10:12:21;9.02;;;2.13;;
52708;SDS011;38606;52.986;6.980;2022-08-03T10:14:47;11.30;;;2.55;;
52708;SDS011;38606;52.986;6.980;2022-08-03T10:17:13;13.00;;;3.05;;
52708;SDS011;38606;52.986;6.980;2022-08-03T10:19:38;13.85;;;3.30;;
52708;SDS011;38606;52.986;6.980;2022-08-03T10:22:25;10.90;;;2.72;;
52708;SDS011;38606;52.986;6.980;2022-08-03T10:24:58;13.52;;;3.03;;
52708;SDS011;38606;52.986;6.980;2022-08-03T10:27:38;9.60;;;2.55;;
52708;SDS011;38606;52.986;6.980;2022-08-03T10:30:07;9.07;;;2.30;;
52708;SDS011;38606;52.986;6.980;2022-08-03T10:32:51;15.60;;;2.55;;
52708;SDS011;38606;52.986;6.980;2022-08-03T10:35:21;13.45;;;2.63;;
52708;SDS011;38606;52.986;6.980;2022-08-03T10:40:44;9.90;;;2.30;;
52708;SDS011;38606;52.986;6.980;2022-08-03T10:43:11;12.93;;;2.38;;
52708;SDS011;38606;52.986;6.980;2022-08-03T10:45:46;8.93;;;2.38;;
52708;SDS011;38606;52.986;6.980;2022-08-03T10:48:12;11.60;;;2.45;;
52708;SDS011;38606;52.986;6.980;2022-08-03T10:50:38;15.85;;;3.00;;
52708;SDS011;38606;52.986;6.980;2022-08-03T10:53:08;10.30;;;2.78;;
52708;SDS011;38606;52.986;6.980;2022-08-03T10:55:34;12.65;;;2.70;;
52708;SDS011;38606;52.986;6.980;2022-08-03T11:01:03;19.55;;;3.65;;
52708;SDS011;38606;52.986;6.980;2022-08-03T11:03:30;14.77;;;3.03;;
52708;SDS011;38606;52.986;6.980;2022-08-03T11:06:13;16.55;;;2.85;;
52708;SDS011;38606;52.986;6.980;2022-08-03T11:08:39;15.55;;;2.60;;
52708;SDS011;38606;52.986;6.980;2022-08-03T11:14:03;17.58;;;3.08;;
52708;SDS011;38606;52.986;6.980;2022-08-03T11:16:37;11.43;;;2.55;;
52708;SDS011;38606;52.986;6.980;2022-08-03T11:19:07;14.70;;;2.90;;
52708;SDS011;38606;52.986;6.980;2022-08-03T11:35:12;18.27;;;3.20;;
52708;SDS011;38606;52.986;6.980;2022-08-03T11:43:03;16.52;;;3.53;;
52708;SDS011;38606;52.986;6.980;2022-08-03T11:45:34;15.13;;;2.70;;
52708;SDS011;38606;52.986;6.980;2022-08-03T11:48:11;16.65;;;3.05;;
52708;SDS011;38606;52.986;6.980;2022-08-03T11:50:40;18.17;;;3.42;;
52708;SDS011;38606;52.986;6.980;2022-08-03T11:53:11;13.15;;;2.90;;
52708;SDS011;38606;52.986;6.980;2022-08-03T11:55:40;13.38;;;3.03;;
52708;SDS011;38606;52.986;6.980;2022-08-03T11:58:13;16.85;;;2.90;;
52708;SDS011;38606;52.986;6.980;2022-08-03T12:00:47;15.43;;;3.05;;
52708;SDS011;38606;52.986;6.980;2022-08-03T12:03:15;13.00;;;2.40;;
52708;SDS011;38606;52.986;6.980;2022-08-03T12:05:51;11.10;;;2.80;;
52708;SDS011;38606;52.986;6.980;2022-08-03T12:08:27;13.00;;;2.63;;
52708;SDS011;38606;52.986;6.980;2022-08-03T12:10:56;12.23;;;2.63;;
52708;SDS011;38606;52.986;6.980;2022-08-03T12:13:22;11.27;;;3.08;;
52708;SDS011;38606;52.986;6.980;2022-08-03T12:15:54;12.02;;;2.60;;
52708;SDS011;38606;52.986;6.980;2022-08-03T12:18:21;15.05;;;3.05;;
52708;SDS011;38606;52.986;6.980;2022-08-03T12:20:49;13.73;;;2.67;;
52708;SDS011;38606;52.986;6.980;2022-08-03T12:23:17;10.60;;;2.50;;
52708;SDS011;38606;52.986;6.980;2022-08-03T12:25:44;14.90;;;3.00;;
52708;SDS011;38606;52.986;6.980;2022-08-03T12:28:16;14.00;;;3.08;;
52708;SDS011;38606;52.986;6.980;2022-08-03T12:30:44;10.43;;;2.38;;
52708;SDS011;38606;52.986;6.980;2022-08-03T12:33:12;12.70;;;2.78;;
52708;SDS011;38606;52.986;6.980;2022-08-03T12:35:39;10.95;;;2.58;;
52708;SDS011;38606;52.986;6.980;2022-08-03T12:38:05;14.23;;;2.40;;
52708;SDS011;38606;52.986;6.980;2022-08-03T12:40:31;13.50;;;2.55;;
52708;SDS011;38606;52.986;6.980;2022-08-03T12:42:56;13.05;;;2.60;;
52708;SDS011;38606;52.986;6.980;2022-08-03T12:45:27;14.13;;;2.13;;
52708;SDS011;38606;52.986;6.980;2022-08-03T12:47:59;14.02;;;2.80;;
52708;SDS011;38606;52.986;6.980;2022-08-03T12:50:32;12.80;;;2.50;;
52708;SDS011;38606;52.986;6.980;2022-08-03T12:53:07;12.43;;;2.50;;
52708;SDS011;38606;52.986;6.980;2022-08-03T12:55:34;11.63;;;2.38;;
52708;SDS011;38606;52.986;6.980;2022-08-03T12:58:02;13.52;;;2.85;;
52708;SDS011;38606;52.986;6.980;2022-08-03T13:00:29;8.15;;;2.20;;
52708;SDS011;38606;52.986;6.980;2022-08-03T13:02:59;12.63;;;2.63;;
52708;SDS011;38606;52.986;6.980;2022-08-03T13:05:26;9.15;;;2.17;;
52708;SDS011;38606;52.986;6.980;2022-08-03T13:07:52;11.75;;;2.30;;
52708;SDS011;38606;52.986;6.980;2022-08-03T13:10:31;15.23;;;3.05;;
52708;SDS011;38606;52.986;6.980;2022-08-03T13:12:57;11.65;;;2.08;;
52708;SDS011;38606;52.986;6.980;2022-08-03T13:15:27;9.18;;;2.08;;
52708;SDS011;38606;52.986;6.980;2022-08-03T13:17:56;14.73;;;2.80;;
52708;SDS011;38606;52.986;6.980;2022-08-03T13:20:22;10.25;;;2.35;;
52708;SDS011;38606;52.986;6.980;2022-08-03T13:22:48;9.75;;;2.15;;
52708;SDS011;38606;52.986;6.980;2022-08-03T13:25:14;11.10;;;2.65;;
52708;SDS011;38606;52.986;6.980;2022-08-03T13:27:40;15.50;;;2.50;;
52708;SDS011;38606;52.986;6.980;2022-08-03T13:30:07;14.73;;;2.20;;
52708;SDS011;38606;52.986;6.980;2022-08-03T13:32:33;11.68;;;2.38;;
52708;SDS011;38606;52.986;6.980;2022-08-03T13:34:59;9.57;;;2.30;;
52708;SDS011;38606;52.986;6.980;2022-08-03T13:37:26;11.88;;;2.67;;
52708;SDS011;38606;52.986;6.980;2022-08-03T13:39:53;15.38;;;2.60;;
52708;SDS011;38606;52.986;6.980;2022-08-03T13:42:19;15.45;;;2.75;;
52708;SDS011;38606;52.986;6.980;2022-08-03T13:44:44;18.23;;;2.40;;
52708;SDS011;38606;52.986;6.980;2022-08-03T13:47:10;13.25;;;2.42;;
52708;SDS011;38606;52.986;6.980;2022-08-03T13:49:36;12.00;;;2.78;;
52708;SDS011;38606;52.986;6.980;2022-08-03T13:52:02;13.27;;;2.75;;
52708;SDS011;38606;52.986;6.980;2022-08-03T13:54:28;14.90;;;3.35;;
52708;SDS011;38606;52.986;6.980;2022-08-03T13:56:54;12.45;;;2.80;;
52708;SDS011;38606;52.986;6.980;2022-08-03T13:59:21;13.50;;;2.30;;
52708;SDS011;38606;52.986;6.980;2022-08-03T14:01:48;11.35;;;2.30;;
52708;SDS011;38606;52.986;6.980;2022-08-03T14:04:15;13.68;;;2.45;;
52708;SDS011;38606;52.986;6.980;2022-08-03T14:06:41;10.73;;;2.75;;
52708;SDS011;38606;52.986;6.980;2022-08-03T14:09:09;13.40;;;2.55;;
52708;SDS011;38606;52.986;6.980;2022-08-03T14:11:35;12.52;;;2.80;;
52708;SDS011;38606;52.986;6.980;2022-08-03T14:14:01;13.45;;;2.80;;
52708;SDS011;38606;52.986;6.980;2022-08-03T14:16:27;17.00;;;3.17;;
52708;SDS011;38606;52.986;6.980;2022-08-03T14:18:52;11.73;;;2.83;;
52708;SDS011;38606;52.986;6.980;2022-08-03T14:21:18;10.38;;;2.70;;
52708;SDS011;38606;52.986;6.980;2022-08-03T14:23:44;12.93;;;2.63;;
52708;SDS011;38606;52.986;6.980;2022-08-03T14:26:09;11.65;;;2.47;;
52708;SDS011;38606;52.986;6.980;2022-08-03T14:28:36;8.23;;;2.13;;
52708;SDS011;38606;52.986;6.980;2022-08-03T14:31:02;13.55;;;2.55;;
52708;SDS011;38606;52.986;6.980;2022-08-03T14:33:28;15.18;;;2.97;;
52708;SDS011;38606;52.986;6.980;2022-08-03T14:35:54;8.98;;;2.10;;
52708;SDS011;38606;52.986;6.980;2022-08-03T14:38:20;11.88;;;2.33;;
52708;SDS011;38606;52.986;6.980;2022-08-03T14:40:46;12.52;;;2.85;;
52708;SDS011;38606;52.986;6.980;2022-08-03T14:43:13;12.10;;;2.53;;
52708;SDS011;38606;52.986;6.980;2022-08-03T14:45:39;9.30;;;2.60;;
52708;SDS011;38606;52.986;6.980;2022-08-03T14:48:05;10.85;;;3.08;;
52708;SDS011;38606;52.986;6.980;2022-08-03T14:50:31;14.70;;;2.63;;
52708;SDS011;38606;52.986;6.980;2022-08-03T14:52:56;12.88;;;2.75;;
52708;SDS011;38606;52.986;6.980;2022-08-03T14:55:22;14.07;;;2.65;;
52708;SDS011;38606;52.986;6.980;2022-08-03T14:57:48;16.48;;;3.45;;
52708;SDS011;38606;52.986;6.980;2022-08-03T15:00:14;12.55;;;2.35;;
52708;SDS011;38606;52.986;6.980;2022-08-03T15:02:40;11.63;;;2.70;;
52708;SDS011;38606;52.986;6.980;2022-08-03T15:05:06;12.63;;;2.40;;
52708;SDS011;38606;52.986;6.980;2022-08-03T15:07:32;12.05;;;2.60;;
52708;SDS011;38606;52.986;6.980;2022-08-03T15:09:57;14.30;;;2.75;;
52708;SDS011;38606;52.986;6.980;2022-08-03T15:12:24;12.80;;;2.53;;
52708;SDS011;38606;52.986;6.980;2022-08-03T15:14:49;11.02;;;2.33;;
52708;SDS011;38606;52.986;6.980;2022-08-03T15:17:15;13.95;;;2.80;;
52708;SDS011;38606;52.986;6.980;2022-08-03T15:19:41;13.20;;;2.60;;
52708;SDS011;38606;52.986;6.980;2022-08-03T15:22:07;14.77;;;2.92;;
52708;SDS011;38606;52.986;6.980;2022-08-03T15:24:33;10.80;;;2.45;;
52708;SDS011;38606;52.986;6.980;2022-08-03T15:26:58;14.02;;;2.60;;
52708;SDS011;38606;52.986;6.980;2022-08-03T15:29:24;11.70;;;2.67;;
52708;SDS011;38606;52.986;6.980;2022-08-03T15:31:50;12.90;;;2.40;;